createdAt,value
2023-01-18T00:02:33.783Z,78.72
2023-01-18T00:06:22.746Z,78.56
2023-01-18T00:10:11.734Z,78.52
2023-01-18T00:13:59.527Z,78.81
2023-01-18T00:33:26.037Z,80.13
2023-01-18T00:37:14.939Z,80.09
2023-01-18T00:41:04.226Z,80.18
2023-01-18T00:44:43.069Z,80.42
2023-01-18T00:48:32.089Z,80.14
2023-01-18T00:52:24.037Z,80.30
2023-01-18T00:56:13.329Z,80.42
2023-01-18T00:59:56.342Z,80.62
2023-01-18T01:03:45.615Z,80.72
2023-01-18T01:07:34.840Z,80.70
2023-01-18T01:11:24.925Z,80.58
2023-01-18T01:15:15.258Z,80.86
2023-01-18T01:19:03.079Z,81.08
2023-01-18T01:22:50.319Z,81.15
2023-01-18T01:30:36.698Z,81.72
2023-01-18T01:34:25.805Z,81.80
2023-01-18T01:38:13.629Z,82.06
2023-01-18T01:42:03.254Z,82.19
2023-01-18T01:45:52.450Z,82.00
2023-01-18T01:49:50.743Z,82.44
2023-01-18T02:09:16.831Z,83.23
2023-01-18T02:13:06.418Z,83.30
2023-01-18T02:16:52.655Z,83.09
2023-01-18T02:20:50.720Z,83.43
2023-01-18T02:24:41.175Z,83.40
2023-01-18T02:28:10.523Z,83.69
2023-01-18T02:32:02.361Z,82.93
2023-01-18T02:40:08.245Z,84.10
2023-01-18T02:43:55.918Z,84.42
2023-01-18T02:47:44.916Z,83.91
2023-01-18T02:51:34.330Z,84.05
2023-01-18T02:55:24.332Z,83.81
2023-01-18T03:00:07.867Z,85.07
2023-01-18T03:03:55.404Z,84.77
2023-01-18T03:07:43.357Z,84.38
2023-01-18T03:16:25.460Z,84.97
2023-01-18T03:20:25.558Z,84.87
2023-01-18T03:24:14.598Z,84.84
2023-01-18T03:28:00.112Z,84.71
2023-01-18T03:31:47.044Z,84.44
2023-01-18T03:43:57.201Z,84.80
2023-01-18T03:47:46.388Z,84.77
2023-01-18T03:51:47.399Z,84.72
2023-01-18T03:55:42.510Z,84.94
2023-01-18T03:59:31.676Z,84.73
2023-01-18T04:03:21.619Z,84.98
2023-01-18T04:07:11.986Z,84.84
2023-01-18T04:11:02.062Z,84.88
2023-01-18T04:14:51.327Z,85.09
2023-01-18T04:18:39.517Z,85.17
2023-01-18T04:22:29.635Z,85.03
2023-01-18T04:26:19.542Z,85.00
2023-01-18T04:30:09.370Z,85.05
2023-01-18T04:33:59.989Z,85.26
2023-01-18T04:37:55.060Z,85.25
2023-01-18T04:41:47.062Z,85.12
2023-01-18T04:45:36.188Z,84.93
2023-01-18T04:49:25.403Z,85.38
2023-01-18T04:53:14.526Z,85.72
2023-01-18T04:57:03.583Z,85.53
2023-01-18T05:00:52.798Z,85.59
2023-01-18T05:04:41.997Z,85.66
2023-01-18T05:08:31.772Z,85.62
2023-01-18T05:12:22.172Z,85.65
2023-01-18T05:28:02.096Z,86.39
2023-01-18T05:31:51.245Z,86.39
2023-01-18T05:35:32.809Z,86.65
2023-01-18T05:39:51.216Z,86.83
2023-01-18T05:43:40.273Z,86.92
2023-01-18T05:47:29.238Z,86.77
2023-01-18T05:51:18.774Z,86.78
2023-01-18T05:55:07.817Z,87.03
2023-01-18T05:58:56.748Z,87.43
2023-01-18T06:02:38.184Z,87.27
2023-01-18T06:06:57.884Z,86.97
2023-01-18T06:10:46.972Z,87.25
2023-01-18T06:14:35.966Z,87.18
2023-01-18T06:18:24.934Z,87.20
2023-01-18T06:22:14.430Z,86.90
2023-01-18T06:26:03.630Z,87.04
2023-01-18T06:29:53.010Z,86.78
2023-01-18T06:33:44.045Z,86.69
2023-01-18T06:53:01.561Z,87.85
2023-01-18T06:56:59.515Z,87.71
2023-01-18T07:00:48.937Z,87.35
2023-01-18T07:04:38.264Z,87.59
2023-01-18T07:08:27.385Z,87.81
2023-01-18T07:12:16.480Z,87.58
2023-01-18T07:16:06.437Z,87.49
2023-01-18T07:19:56.357Z,87.99
2023-01-18T07:23:45.977Z,87.89
2023-01-18T07:27:15.606Z,88.12
2023-01-18T07:31:05.167Z,88.03
2023-01-18T07:34:57.518Z,88.23
2023-01-18T07:38:48.808Z,88.11
2023-01-18T07:42:37.932Z,87.63
2023-01-18T07:46:26.961Z,87.02
2023-01-18T07:50:15.995Z,86.71
2023-01-18T07:54:05.248Z,87.61
2023-01-18T07:57:54.300Z,88.02
2023-01-18T08:01:46.668Z,87.88
2023-01-18T08:05:35.786Z,87.57
2023-01-18T08:09:26.634Z,86.92
2023-01-18T08:13:17.453Z,87.76
2023-01-18T08:17:11.073Z,88.46
2023-01-18T08:21:20.111Z,88.57
2023-01-18T08:25:11.269Z,88.78
2023-01-18T08:29:01.659Z,88.62
2023-01-18T08:32:43.801Z,88.49
2023-01-18T08:36:32.320Z,88.94
2023-01-18T08:40:22.517Z,89.13
2023-01-18T08:44:13.772Z,89.53
2023-01-18T08:47:42.542Z,89.69
2023-01-18T08:51:31.531Z,89.58
2023-01-18T08:55:23.886Z,89.16
2023-01-18T08:59:13.076Z,89.58
2023-01-18T09:03:02.730Z,89.79
2023-01-18T09:06:52.771Z,90.10
2023-01-18T09:10:43.798Z,90.25
2023-01-18T09:14:34.555Z,90.23
2023-01-18T09:18:24.276Z,89.94
2023-01-18T09:22:13.283Z,90.04
2023-01-18T09:52:09.452Z,90.68
2023-01-18T09:56:00.342Z,90.79
2023-01-18T10:00:05.228Z,90.73
2023-01-18T10:03:40.032Z,90.71
2023-01-18T10:07:21.832Z,90.58
2023-01-18T10:11:11.050Z,90.49
2023-01-18T10:15:03.176Z,90.40
2023-01-18T10:18:54.194Z,90.37
2023-01-18T10:31:35.225Z,90.16
2023-01-18T10:35:26.959Z,90.04
2023-01-18T10:39:16.450Z,90.17
2023-01-18T10:43:14.720Z,90.21
2023-01-18T10:47:04.423Z,89.97
2023-01-18T10:58:45.316Z,89.60
2023-01-18T11:02:18.483Z,89.45
2023-01-18T11:06:13.473Z,89.53
2023-01-18T11:18:17.973Z,89.62
2023-01-18T11:22:06.936Z,89.84
2023-01-18T11:25:56.813Z,89.76
2023-01-18T11:37:49.346Z,90.27
2023-01-18T11:41:41.502Z,90.44
2023-01-18T11:45:46.016Z,90.50
2023-01-18T11:57:48.769Z,90.92
2023-01-18T12:01:36.111Z,91.06
2023-01-18T12:05:31.178Z,91.03
2023-01-18T12:09:32.018Z,91.12
2023-01-18T12:13:22.053Z,91.21
2023-01-18T12:26:20.002Z,90.89
2023-01-18T12:30:20.620Z,90.87
2023-01-18T12:42:36.395Z,90.67
2023-01-18T12:46:46.037Z,90.50
2023-01-18T13:02:28.962Z,90.81
2023-01-18T13:06:24.996Z,90.98
2023-01-18T13:22:39.788Z,91.70
2023-01-18T13:26:48.696Z,91.56
2023-01-18T13:30:35.727Z,91.66
2023-01-18T13:35:20.635Z,91.52
2023-01-18T13:39:06.471Z,91.47
2023-01-18T13:43:23.034Z,91.24
2023-01-18T13:47:17.936Z,90.97
2023-01-18T13:51:09.206Z,90.57
2023-01-18T13:54:59.579Z,89.95
2023-01-18T14:06:45.802Z,88.56
2023-01-18T14:10:35.347Z,88.56
2023-01-18T14:22:55.751Z,88.25
2023-01-18T14:26:50.431Z,88.11
2023-01-18T14:34:36.853Z,88.19
2023-01-18T14:38:28.694Z,88.01
2023-01-18T14:42:16.827Z,87.82
2023-01-18T14:58:01.634Z,87.01
2023-01-18T15:01:53.380Z,86.89
2023-01-18T15:05:52.326Z,86.62
2023-01-18T15:29:05.050Z,83.93
2023-01-18T15:33:00.300Z,83.77
2023-01-18T15:36:49.971Z,83.18
2023-01-18T15:40:42.628Z,82.59
2023-01-18T15:44:31.724Z,82.11
2023-01-18T16:00:16.396Z,82.41
2023-01-18T16:04:08.476Z,82.15
2023-01-18T16:16:26.303Z,81.24
2023-01-18T16:20:15.465Z,81.00
2023-01-18T16:24:06.969Z,80.71
2023-01-18T16:28:01.033Z,80.34
2023-01-18T16:44:06.851Z,78.55
2023-01-18T16:47:55.045Z,78.38
2023-01-18T16:51:44.626Z,78.73
2023-01-18T16:55:31.328Z,78.06
2023-01-18T16:59:19.167Z,77.70
2023-01-18T17:03:07.292Z,77.36
2023-01-18T17:06:57.960Z,76.97
2023-01-18T17:11:01.224Z,77.13
2023-01-18T17:22:53.319Z,77.12
2023-01-18T17:26:43.031Z,77.09
2023-01-18T17:30:32.630Z,77.05
2023-01-18T17:34:27.100Z,77.29
2023-01-18T17:38:24.348Z,77.63
2023-01-18T17:42:18.969Z,77.65
2023-01-18T17:46:12.089Z,77.81
2023-01-18T17:50:01.589Z,78.15
2023-01-18T18:05:42.030Z,77.77
2023-01-18T18:09:32.063Z,77.86
2023-01-18T18:13:21.484Z,77.71
2023-01-18T18:17:10.719Z,77.44
2023-01-18T18:20:59.954Z,77.28
2023-01-18T18:24:50.858Z,77.34
2023-01-18T18:28:39.931Z,77.45
2023-01-18T18:32:29.202Z,77.74
2023-01-18T18:36:51.009Z,77.79
2023-01-18T18:40:40.266Z,77.70
2023-01-18T18:44:29.968Z,77.42
2023-01-18T18:48:19.090Z,77.10
2023-01-18T18:52:09.665Z,77.08
2023-01-18T18:55:58.600Z,77.02
2023-01-18T18:59:21.050Z,76.87
2023-01-18T19:03:10.120Z,76.64
2023-01-18T19:07:00.143Z,76.33
2023-01-18T19:10:51.390Z,76.03
2023-01-18T19:14:43.068Z,75.61
2023-01-18T19:18:12.596Z,75.48
2023-01-18T19:22:02.131Z,75.54
2023-01-18T19:25:52.054Z,75.45
2023-01-18T19:29:04.242Z,75.68
2023-01-18T19:32:53.433Z,75.81
2023-01-18T19:36:48.423Z,75.98
2023-01-18T19:40:37.557Z,76.18
2023-01-18T19:44:26.855Z,76.34
2023-01-18T19:48:15.711Z,76.47
2023-01-18T19:52:05.005Z,76.55
2023-01-18T19:55:59.793Z,76.66
2023-01-18T19:59:56.584Z,76.76
2023-01-18T20:03:46.298Z,76.89
2023-01-18T20:07:16.499Z,77.05
2023-01-18T20:11:00.361Z,77.03
2023-01-18T20:14:51.237Z,76.97
2023-01-18T20:19:11.026Z,77.05
2023-01-18T20:23:00.758Z,77.10
2023-01-18T20:26:55.064Z,77.21
2023-01-18T20:30:45.637Z,77.35
2023-01-18T20:34:35.013Z,77.45
2023-01-18T20:38:25.921Z,77.46
2023-01-18T20:42:14.780Z,77.38
2023-01-18T20:46:06.737Z,77.31
2023-01-18T20:49:55.657Z,77.13
2023-01-18T20:53:46.229Z,77.07
2023-01-18T20:57:58.666Z,76.90
2023-01-18T21:02:04.862Z,76.78
2023-01-18T21:06:22.484Z,76.80
2023-01-18T21:30:00.908Z,77.04
2023-01-18T21:33:49.897Z,77.19
2023-01-18T21:37:29.450Z,77.25
2023-01-18T21:41:18.725Z,77.40
2023-01-18T21:45:05.035Z,77.56
2023-01-18T21:48:54.157Z,77.58
2023-01-18T21:52:41.485Z,77.59
2023-01-18T21:56:30.496Z,77.55
2023-01-18T22:00:19.669Z,77.52
2023-01-18T22:04:08.423Z,77.49
2023-01-18T22:07:57.862Z,77.57
2023-01-18T22:11:48.350Z,77.58
2023-01-18T22:27:48.533Z,77.34
2023-01-18T22:31:36.068Z,77.23
2023-01-18T22:35:23.978Z,77.05
2023-01-18T22:47:17.179Z,76.80
2023-01-18T22:51:07.514Z,76.67
2023-01-18T22:54:57.439Z,76.67
2023-01-18T22:59:16.040Z,76.69
2023-01-18T23:03:05.139Z,76.75
2023-01-18T23:06:54.491Z,76.85
2023-01-18T23:10:43.519Z,77.04
2023-01-18T23:14:30.771Z,77.36
2023-01-18T23:18:19.804Z,77.74
2023-01-18T23:22:09.378Z,78.19
2023-01-18T23:25:58.472Z,78.40
2023-01-18T23:29:47.512Z,78.30
2023-01-18T23:33:36.831Z,78.23
2023-01-18T23:37:26.248Z,78.18
2023-01-18T23:41:12.901Z,78.27
2023-01-18T23:45:00.379Z,78.31
2023-01-18T23:48:47.658Z,78.36
2023-01-18T23:52:35.217Z,78.64
2023-01-18T23:56:24.251Z,78.94
2023-01-18T23:59:53.284Z,79.41
